sensor_id;sensor_type;location;lat;lon;timestamp;temperature;humidity
612;DHT22;293;53.888;11.464;2023-02-25T00:01:32;3.90;99.90
612;DHT22;293;53.888;11.464;2023-02-25T00:03:59;4.00;99.90
612;DHT22;293;53.888;11.464;2023-02-25T00:06:26;3.90;99.90
612;DHT22;293;53.888;11.464;2023-02-25T00:08:54;3.90;99.90
612;DHT22;293;53.888;11.464;2023-02-25T00:11:23;3.80;99.90
612;DHT22;293;53.888;11.464;2023-02-25T00:13:51;3.90;99.90
612;DHT22;293;53.888;11.464;2023-02-25T00:16:19;3.90;99.90
612;DHT22;293;53.888;11.464;2023-02-25T00:18:46;3.80;99.90
612;DHT22;293;53.888;11.464;2023-02-25T00:21:15;3.80;99.90
612;DHT22;293;53.888;11.464;2023-02-25T00:23:44;3.80;99.90
612;DHT22;293;53.888;11.464;2023-02-25T00:26:11;3.80;99.90
612;DHT22;293;53.888;11.464;2023-02-25T00:28:39;3.80;99.90
612;DHT22;293;53.888;11.464;2023-02-25T00:31:09;3.80;99.90
612;DHT22;293;53.888;11.464;2023-02-25T00:33:36;3.80;99.90
612;DHT22;293;53.888;11.464;2023-02-25T00:36:07;3.90;99.90
612;DHT22;293;53.888;11.464;2023-02-25T00:38:35;3.80;99.90
612;DHT22;293;53.888;11.464;2023-02-25T00:41:05;3.70;99.90
612;DHT22;293;53.888;11.464;2023-02-25T00:43:36;3.70;99.90
612;DHT22;293;53.888;11.464;2023-02-25T00:46:03;3.60;99.90
612;DHT22;293;53.888;11.464;2023-02-25T00:48:32;3.60;99.90
612;DHT22;293;53.888;11.464;2023-02-25T00:51:04;3.60;99.90
612;DHT22;293;53.888;11.464;2023-02-25T00:53:31;3.70;99.90
612;DHT22;293;53.888;11.464;2023-02-25T00:55:59;3.50;99.90
612;DHT22;293;53.888;11.464;2023-02-25T00:58:26;3.50;99.90
612;DHT22;293;53.888;11.464;2023-02-25T01:00:53;3.60;99.90
612;DHT22;293;53.888;11.464;2023-02-25T01:03:20;3.70;99.90
612;DHT22;293;53.888;11.464;2023-02-25T01:05:48;3.70;99.90
612;DHT22;293;53.888;11.464;2023-02-25T01:08:16;3.70;99.90
612;DHT22;293;53.888;11.464;2023-02-25T01:10:43;3.70;99.90
612;DHT22;293;53.888;11.464;2023-02-25T01:13:11;3.70;99.90
612;DHT22;293;53.888;11.464;2023-02-25T01:15:38;3.60;99.90
612;DHT22;293;53.888;11.464;2023-02-25T01:18:05;3.70;99.90
612;DHT22;293;53.888;11.464;2023-02-25T01:20:36;3.60;99.90
612;DHT22;293;53.888;11.464;2023-02-25T01:23:05;3.50;99.90
612;DHT22;293;53.888;11.464;2023-02-25T01:25:32;3.50;99.90
612;DHT22;293;53.888;11.464;2023-02-25T01:27:59;3.50;99.90
612;DHT22;293;53.888;11.464;2023-02-25T01:30:26;3.40;99.90
612;DHT22;293;53.888;11.464;2023-02-25T01:32:53;3.40;99.90
612;DHT22;293;53.888;11.464;2023-02-25T01:35:20;3.50;99.90
612;DHT22;293;53.888;11.464;2023-02-25T01:37:47;3.50;99.90
612;DHT22;293;53.888;11.464;2023-02-25T01:40:16;3.50;99.90
612;DHT22;293;53.888;11.464;2023-02-25T01:42:43;3.50;99.90
612;DHT22;293;53.888;11.464;2023-02-25T01:45:28;3.50;99.90
612;DHT22;293;53.888;11.464;2023-02-25T01:48:02;3.50;99.90
612;DHT22;293;53.888;11.464;2023-02-25T01:50:36;3.50;99.90
612;DHT22;293;53.888;11.464;2023-02-25T01:53:06;3.60;99.90
612;DHT22;293;53.888;11.464;2023-02-25T01:55:37;3.50;99.90
612;DHT22;293;53.888;11.464;2023-02-25T01:58:04;3.50;99.90
612;DHT22;293;53.888;11.464;2023-02-25T02:00:32;3.50;99.90
612;DHT22;293;53.888;11.464;2023-02-25T02:02:59;3.60;99.90
612;DHT22;293;53.888;11.464;2023-02-25T02:05:36;3.50;99.90
612;DHT22;293;53.888;11.464;2023-02-25T02:08:06;3.50;99.90
612;DHT22;293;53.888;11.464;2023-02-25T02:10:36;3.50;99.90
612;DHT22;293;53.888;11.464;2023-02-25T02:13:03;3.50;99.90
612;DHT22;293;53.888;11.464;2023-02-25T02:15:37;3.50;99.90
612;DHT22;293;53.888;11.464;2023-02-25T02:18:06;3.50;99.90
612;DHT22;293;53.888;11.464;2023-02-25T02:20:42;3.50;99.90
612;DHT22;293;53.888;11.464;2023-02-25T02:23:27;3.60;99.90
612;DHT22;293;53.888;11.464;2023-02-25T02:26:24;3.60;99.90
612;DHT22;293;53.888;11.464;2023-02-25T02:29:35;3.60;99.90
612;DHT22;293;53.888;11.464;2023-02-25T02:32:13;3.40;99.90
612;DHT22;293;53.888;11.464;2023-02-25T02:34:45;3.40;99.90
612;DHT22;293;53.888;11.464;2023-02-25T02:37:30;3.50;99.90
612;DHT22;293;53.888;11.464;2023-02-25T02:40:09;3.40;99.90
612;DHT22;293;53.888;11.464;2023-02-25T02:42:45;3.30;99.90
612;DHT22;293;53.888;11.464;2023-02-25T02:45:19;3.30;99.90
612;DHT22;293;53.888;11.464;2023-02-25T02:47:53;3.40;99.90
612;DHT22;293;53.888;11.464;2023-02-25T02:50:28;3.40;99.90
612;DHT22;293;53.888;11.464;2023-02-25T02:53:02;3.40;99.90
612;DHT22;293;53.888;11.464;2023-02-25T02:55:34;3.30;99.90
612;DHT22;293;53.888;11.464;2023-02-25T02:58:06;3.40;99.90
612;DHT22;293;53.888;11.464;2023-02-25T03:00:38;3.40;99.90
612;DHT22;293;53.888;11.464;2023-02-25T03:03:11;3.40;99.90
612;DHT22;293;53.888;11.464;2023-02-25T03:05:40;3.50;99.90
612;DHT22;293;53.888;11.464;2023-02-25T03:08:10;3.50;99.90
612;DHT22;293;53.888;11.464;2023-02-25T03:10:38;3.60;99.90
612;DHT22;293;53.888;11.464;2023-02-25T03:13:05;3.60;99.90
612;DHT22;293;53.888;11.464;2023-02-25T03:15:32;3.60;99.90
612;DHT22;293;53.888;11.464;2023-02-25T03:18:04;3.60;99.90
612;DHT22;293;53.888;11.464;2023-02-25T03:20:36;3.40;99.90
612;DHT22;293;53.888;11.464;2023-02-25T03:23:10;3.40;99.90
612;DHT22;293;53.888;11.464;2023-02-25T03:25:42;3.40;99.90
612;DHT22;293;53.888;11.464;2023-02-25T03:28:21;3.40;99.90
612;DHT22;293;53.888;11.464;2023-02-25T03:30:55;3.50;99.90
612;DHT22;293;53.888;11.464;2023-02-25T03:33:30;3.50;99.90
612;DHT22;293;53.888;11.464;2023-02-25T03:36:02;3.50;99.90
612;DHT22;293;53.888;11.464;2023-02-25T03:38:32;3.40;99.90
612;DHT22;293;53.888;11.464;2023-02-25T03:41:03;3.40;99.90
612;DHT22;293;53.888;11.464;2023-02-25T03:43:34;3.30;99.90
612;DHT22;293;53.888;11.464;2023-02-25T03:46:04;3.30;99.90
612;DHT22;293;53.888;11.464;2023-02-25T03:48:32;3.30;99.90
612;DHT22;293;53.888;11.464;2023-02-25T03:51:04;3.40;99.90
612;DHT22;293;53.888;11.464;2023-02-25T03:53:32;3.40;99.90
612;DHT22;293;53.888;11.464;2023-02-25T03:56:04;3.40;99.90
612;DHT22;293;53.888;11.464;2023-02-25T03:58:33;3.40;99.90
612;DHT22;293;53.888;11.464;2023-02-25T04:01:03;3.40;99.90
612;DHT22;293;53.888;11.464;2023-02-25T04:03:30;3.30;99.90
612;DHT22;293;53.888;11.464;2023-02-25T04:05:57;3.30;99.90
612;DHT22;293;53.888;11.464;2023-02-25T04:08:25;3.40;99.90
612;DHT22;293;53.888;11.464;2023-02-25T04:10:52;3.30;99.90
612;DHT22;293;53.888;11.464;2023-02-25T04:13:19;3.30;99.90
612;DHT22;293;53.888;11.464;2023-02-25T04:15:47;3.30;99.90
612;DHT22;293;53.888;11.464;2023-02-25T04:18:15;3.30;99.90
612;DHT22;293;53.888;11.464;2023-02-25T04:20:42;3.30;99.90
612;DHT22;293;53.888;11.464;2023-02-25T04:23:11;3.30;99.90
612;DHT22;293;53.888;11.464;2023-02-25T04:25:41;3.20;99.90
612;DHT22;293;53.888;11.464;2023-02-25T04:28:08;3.20;99.90
612;DHT22;293;53.888;11.464;2023-02-25T04:30:35;3.20;99.90
612;DHT22;293;53.888;11.464;2023-02-25T04:33:03;3.20;99.90
612;DHT22;293;53.888;11.464;2023-02-25T04:35:30;3.20;99.90
612;DHT22;293;53.888;11.464;2023-02-25T04:37:57;3.20;99.90
612;DHT22;293;53.888;11.464;2023-02-25T04:40:24;3.20;99.90
612;DHT22;293;53.888;11.464;2023-02-25T04:42:52;3.20;99.90
612;DHT22;293;53.888;11.464;2023-02-25T04:45:19;3.10;99.90
612;DHT22;293;53.888;11.464;2023-02-25T04:47:51;3.20;99.90
612;DHT22;293;53.888;11.464;2023-02-25T04:50:19;3.10;99.90
612;DHT22;293;53.888;11.464;2023-02-25T04:52:46;3.20;99.90
612;DHT22;293;53.888;11.464;2023-02-25T04:55:13;3.20;99.90
612;DHT22;293;53.888;11.464;2023-02-25T04:57:40;3.10;99.90
612;DHT22;293;53.888;11.464;2023-02-25T05:00:12;3.20;99.90
612;DHT22;293;53.888;11.464;2023-02-25T05:02:45;3.20;99.90
612;DHT22;293;53.888;11.464;2023-02-25T05:05:12;3.20;99.90
612;DHT22;293;53.888;11.464;2023-02-25T05:07:39;3.20;99.90
612;DHT22;293;53.888;11.464;2023-02-25T05:10:07;3.20;99.90
612;DHT22;293;53.888;11.464;2023-02-25T05:12:35;3.20;99.90
612;DHT22;293;53.888;11.464;2023-02-25T05:15:02;3.20;99.90
612;DHT22;293;53.888;11.464;2023-02-25T05:17:31;3.20;99.90
612;DHT22;293;53.888;11.464;2023-02-25T05:19:58;3.20;99.90
612;DHT22;293;53.888;11.464;2023-02-25T05:22:25;3.10;99.90
612;DHT22;293;53.888;11.464;2023-02-25T05:24:52;3.10;99.90
612;DHT22;293;53.888;11.464;2023-02-25T05:27:19;3.00;99.90
612;DHT22;293;53.888;11.464;2023-02-25T05:29:46;2.90;99.90
612;DHT22;293;53.888;11.464;2023-02-25T05:32:15;2.80;99.90
612;DHT22;293;53.888;11.464;2023-02-25T05:34:44;2.70;99.90
612;DHT22;293;53.888;11.464;2023-02-25T05:37:11;2.70;99.90
612;DHT22;293;53.888;11.464;2023-02-25T05:39:38;2.60;99.90
612;DHT22;293;53.888;11.464;2023-02-25T05:42:05;2.50;99.90
612;DHT22;293;53.888;11.464;2023-02-25T05:44:32;2.50;99.90
612;DHT22;293;53.888;11.464;2023-02-25T05:46:58;2.50;99.90
612;DHT22;293;53.888;11.464;2023-02-25T05:49:25;2.40;99.90
612;DHT22;293;53.888;11.464;2023-02-25T05:51:53;2.40;99.90
612;DHT22;293;53.888;11.464;2023-02-25T05:54:20;2.40;99.90
612;DHT22;293;53.888;11.464;2023-02-25T05:56:49;2.40;99.90
612;DHT22;293;53.888;11.464;2023-02-25T05:59:17;2.40;99.90
612;DHT22;293;53.888;11.464;2023-02-25T06:01:44;2.50;99.90
612;DHT22;293;53.888;11.464;2023-02-25T06:04:11;2.40;99.90
612;DHT22;293;53.888;11.464;2023-02-25T06:06:38;2.40;99.90
612;DHT22;293;53.888;11.464;2023-02-25T06:09:06;2.40;99.90
612;DHT22;293;53.888;11.464;2023-02-25T06:11:34;2.50;99.90
612;DHT22;293;53.888;11.464;2023-02-25T06:14:01;2.50;99.90
612;DHT22;293;53.888;11.464;2023-02-25T06:16:28;2.40;99.90
612;DHT22;293;53.888;11.464;2023-02-25T06:18:57;2.40;99.90
612;DHT22;293;53.888;11.464;2023-02-25T06:21:24;2.40;99.90
612;DHT22;293;53.888;11.464;2023-02-25T06:23:51;2.40;99.90
612;DHT22;293;53.888;11.464;2023-02-25T06:26:19;2.40;99.90
612;DHT22;293;53.888;11.464;2023-02-25T06:28:46;2.40;99.90
612;DHT22;293;53.888;11.464;2023-02-25T06:31:16;2.30;99.90
612;DHT22;293;53.888;11.464;2023-02-25T06:33:43;2.40;99.90
612;DHT22;293;53.888;11.464;2023-02-25T06:36:11;2.30;99.90
612;DHT22;293;53.888;11.464;2023-02-25T06:38:39;2.30;99.90
612;DHT22;293;53.888;11.464;2023-02-25T06:41:08;2.30;99.90
612;DHT22;293;53.888;11.464;2023-02-25T06:43:37;2.40;99.90
612;DHT22;293;53.888;11.464;2023-02-25T06:46:05;2.40;99.90
612;DHT22;293;53.888;11.464;2023-02-25T06:48:32;2.40;99.90
612;DHT22;293;53.888;11.464;2023-02-25T06:50:59;2.30;99.90
612;DHT22;293;53.888;11.464;2023-02-25T06:53:27;2.20;99.90
612;DHT22;293;53.888;11.464;2023-02-25T06:55:54;2.10;99.90
612;DHT22;293;53.888;11.464;2023-02-25T06:58:21;1.90;99.90
612;DHT22;293;53.888;11.464;2023-02-25T07:00:49;1.80;99.90
612;DHT22;293;53.888;11.464;2023-02-25T07:03:16;1.80;99.90
612;DHT22;293;53.888;11.464;2023-02-25T07:05:43;1.80;99.90
612;DHT22;293;53.888;11.464;2023-02-25T07:08:09;1.70;99.90
612;DHT22;293;53.888;11.464;2023-02-25T07:10:36;1.70;99.90
612;DHT22;293;53.888;11.464;2023-02-25T07:13:05;1.70;99.90
612;DHT22;293;53.888;11.464;2023-02-25T07:15:32;1.70;99.90
612;DHT22;293;53.888;11.464;2023-02-25T07:18:00;1.80;99.90
612;DHT22;293;53.888;11.464;2023-02-25T07:20:27;1.80;99.90
612;DHT22;293;53.888;11.464;2023-02-25T07:22:54;1.90;99.90
612;DHT22;293;53.888;11.464;2023-02-25T07:25:21;1.90;99.90
612;DHT22;293;53.888;11.464;2023-02-25T07:27:48;2.00;99.90
612;DHT22;293;53.888;11.464;2023-02-25T07:30:15;2.00;99.90
612;DHT22;293;53.888;11.464;2023-02-25T07:32:42;2.10;99.90
612;DHT22;293;53.888;11.464;2023-02-25T07:35:11;2.00;99.90
612;DHT22;293;53.888;11.464;2023-02-25T07:37:38;2.10;99.90
612;DHT22;293;53.888;11.464;2023-02-25T07:40:06;2.10;99.90
612;DHT22;293;53.888;11.464;2023-02-25T07:42:37;2.20;99.90
612;DHT22;293;53.888;11.464;2023-02-25T07:45:05;2.20;99.90
612;DHT22;293;53.888;11.464;2023-02-25T07:47:33;2.30;99.90
612;DHT22;293;53.888;11.464;2023-02-25T07:49:59;2.30;99.90
612;DHT22;293;53.888;11.464;2023-02-25T07:52:28;2.20;99.90
612;DHT22;293;53.888;11.464;2023-02-25T07:54:55;2.20;99.90
612;DHT22;293;53.888;11.464;2023-02-25T07:57:22;2.20;99.90
612;DHT22;293;53.888;11.464;2023-02-25T07:59:49;2.20;99.90
612;DHT22;293;53.888;11.464;2023-02-25T08:02:16;2.10;99.90
612;DHT22;293;53.888;11.464;2023-02-25T08:04:43;2.10;99.90
612;DHT22;293;53.888;11.464;2023-02-25T08:07:10;2.20;99.90
612;DHT22;293;53.888;11.464;2023-02-25T08:09:38;2.30;99.90
612;DHT22;293;53.888;11.464;2023-02-25T08:12:06;2.30;99.90
612;DHT22;293;53.888;11.464;2023-02-25T08:14:33;2.30;99.90
612;DHT22;293;53.888;11.464;2023-02-25T08:17:00;2.30;99.90
612;DHT22;293;53.888;11.464;2023-02-25T08:19:27;2.30;99.90
612;DHT22;293;53.888;11.464;2023-02-25T08:21:54;2.40;99.90
612;DHT22;293;53.888;11.464;2023-02-25T08:24:21;2.40;99.90
612;DHT22;293;53.888;11.464;2023-02-25T08:26:49;2.40;99.90
612;DHT22;293;53.888;11.464;2023-02-25T08:29:16;2.50;99.90
612;DHT22;293;53.888;11.464;2023-02-25T08:31:43;2.50;99.90
612;DHT22;293;53.888;11.464;2023-02-25T08:34:11;2.40;99.90
612;DHT22;293;53.888;11.464;2023-02-25T08:36:38;2.40;99.90
612;DHT22;293;53.888;11.464;2023-02-25T08:39:05;2.40;99.90
612;DHT22;293;53.888;11.464;2023-02-25T08:41:33;2.40;99.90
612;DHT22;293;53.888;11.464;2023-02-25T08:44:01;2.40;99.90
612;DHT22;293;53.888;11.464;2023-02-25T08:46:31;2.40;99.90
612;DHT22;293;53.888;11.464;2023-02-25T08:48:58;2.30;99.90
612;DHT22;293;53.888;11.464;2023-02-25T08:51:26;2.30;99.90
612;DHT22;293;53.888;11.464;2023-02-25T08:53:58;2.30;99.90
612;DHT22;293;53.888;11.464;2023-02-25T08:56:26;2.40;99.90
612;DHT22;293;53.888;11.464;2023-02-25T08:58:53;2.30;99.90
612;DHT22;293;53.888;11.464;2023-02-25T09:01:22;2.30;99.90
612;DHT22;293;53.888;11.464;2023-02-25T09:03:49;2.40;99.90
612;DHT22;293;53.888;11.464;2023-02-25T09:06:20;2.50;99.90
612;DHT22;293;53.888;11.464;2023-02-25T09:08:48;2.50;99.90
612;DHT22;293;53.888;11.464;2023-02-25T09:11:16;2.60;99.90
612;DHT22;293;53.888;11.464;2023-02-25T09:13:43;2.70;99.90
612;DHT22;293;53.888;11.464;2023-02-25T09:16:10;2.80;99.90
612;DHT22;293;53.888;11.464;2023-02-25T09:18:43;2.80;99.90
612;DHT22;293;53.888;11.464;2023-02-25T09:21:11;2.70;99.90
612;DHT22;293;53.888;11.464;2023-02-25T09:23:38;2.70;99.90
612;DHT22;293;53.888;11.464;2023-02-25T09:26:05;2.80;99.90
612;DHT22;293;53.888;11.464;2023-02-25T09:28:33;2.80;99.90
612;DHT22;293;53.888;11.464;2023-02-25T09:31:00;2.80;99.90
612;DHT22;293;53.888;11.464;2023-02-25T09:33:29;2.90;99.90
612;DHT22;293;53.888;11.464;2023-02-25T09:36:04;2.90;99.90
612;DHT22;293;53.888;11.464;2023-02-25T09:38:33;2.90;99.90
612;DHT22;293;53.888;11.464;2023-02-25T09:41:00;3.00;99.90
612;DHT22;293;53.888;11.464;2023-02-25T09:43:29;3.10;99.90
612;DHT22;293;53.888;11.464;2023-02-25T09:46:03;3.10;99.90
612;DHT22;293;53.888;11.464;2023-02-25T09:48:32;3.10;99.90
612;DHT22;293;53.888;11.464;2023-02-25T09:51:06;3.20;99.90
612;DHT22;293;53.888;11.464;2023-02-25T09:53:43;3.20;99.90
612;DHT22;293;53.888;11.464;2023-02-25T09:56:14;3.60;99.90
612;DHT22;293;53.888;11.464;2023-02-25T09:58:45;3.00;99.90
612;DHT22;293;53.888;11.464;2023-02-25T10:01:21;3.00;99.90
612;DHT22;293;53.888;11.464;2023-02-25T10:03:56;3.10;99.90
612;DHT22;293;53.888;11.464;2023-02-25T10:06:29;3.20;99.90
612;DHT22;293;53.888;11.464;2023-02-25T10:09:04;3.20;99.90
612;DHT22;293;53.888;11.464;2023-02-25T10:11:42;3.30;99.90
612;DHT22;293;53.888;11.464;2023-02-25T10:17:04;3.30;99.90
612;DHT22;293;53.888;11.464;2023-02-25T10:19:45;3.30;99.90
612;DHT22;293;53.888;11.464;2023-02-25T10:22:35;3.30;99.90
612;DHT22;293;53.888;11.464;2023-02-25T10:25:12;3.30;99.90
612;DHT22;293;53.888;11.464;2023-02-25T10:27:43;3.40;99.90
612;DHT22;293;53.888;11.464;2023-02-25T10:30:15;3.40;99.90
612;DHT22;293;53.888;11.464;2023-02-25T10:32:44;3.40;99.90
612;DHT22;293;53.888;11.464;2023-02-25T10:35:15;3.40;99.90
612;DHT22;293;53.888;11.464;2023-02-25T10:37:44;3.40;99.90
612;DHT22;293;53.888;11.464;2023-02-25T10:40:14;3.40;99.90
612;DHT22;293;53.888;11.464;2023-02-25T10:42:45;3.40;99.90
612;DHT22;293;53.888;11.464;2023-02-25T10:45:19;3.50;99.90
612;DHT22;293;53.888;11.464;2023-02-25T10:47:50;3.60;99.90
612;DHT22;293;53.888;11.464;2023-02-25T10:50:22;3.60;99.90
612;DHT22;293;53.888;11.464;2023-02-25T10:53:02;3.60;99.90
612;DHT22;293;53.888;11.464;2023-02-25T10:55:38;3.60;99.90
612;DHT22;293;53.888;11.464;2023-02-25T10:58:34;3.50;99.90
612;DHT22;293;53.888;11.464;2023-02-25T11:01:05;3.20;99.90
612;DHT22;293;53.888;11.464;2023-02-25T11:03:51;3.60;99.90
612;DHT22;293;53.888;11.464;2023-02-25T11:06:24;3.10;99.90
612;DHT22;293;53.888;11.464;2023-02-25T11:08:54;3.10;99.90
612;DHT22;293;53.888;11.464;2023-02-25T11:11:24;3.20;99.90
612;DHT22;293;53.888;11.464;2023-02-25T11:13:59;3.10;99.90
612;DHT22;293;53.888;11.464;2023-02-25T11:16:27;3.20;99.90
612;DHT22;293;53.888;11.464;2023-02-25T11:18:57;3.20;99.90
612;DHT22;293;53.888;11.464;2023-02-25T11:21:31;3.40;99.90
612;DHT22;293;53.888;11.464;2023-02-25T11:24:02;3.50;99.90
612;DHT22;293;53.888;11.464;2023-02-25T11:26:32;3.60;99.90
612;DHT22;293;53.888;11.464;2023-02-25T11:29:06;3.70;99.90
612;DHT22;293;53.888;11.464;2023-02-25T11:31:36;3.80;99.90
612;DHT22;293;53.888;11.464;2023-02-25T11:34:11;3.80;99.90
612;DHT22;293;53.888;11.464;2023-02-25T11:36:39;3.80;99.90
612;DHT22;293;53.888;11.464;2023-02-25T11:39:18;4.00;99.90
612;DHT22;293;53.888;11.464;2023-02-25T11:41:46;4.00;99.90
612;DHT22;293;53.888;11.464;2023-02-25T11:44:23;4.10;99.90
612;DHT22;293;53.888;11.464;2023-02-25T11:46:57;4.20;99.90
612;DHT22;293;53.888;11.464;2023-02-25T11:49:33;3.90;99.90
612;DHT22;293;53.888;11.464;2023-02-25T11:52:09;3.90;99.90
612;DHT22;293;53.888;11.464;2023-02-25T11:54:44;3.80;99.90
612;DHT22;293;53.888;11.464;2023-02-25T11:57:18;3.90;99.90
612;DHT22;293;53.888;11.464;2023-02-25T11:59:53;4.00;99.90
612;DHT22;293;53.888;11.464;2023-02-25T12:02:36;4.00;99.90
612;DHT22;293;53.888;11.464;2023-02-25T12:08:14;3.90;99.90
612;DHT22;293;53.888;11.464;2023-02-25T12:11:01;3.80;99.90
612;DHT22;293;53.888;11.464;2023-02-25T12:14:11;3.80;99.90
612;DHT22;293;53.888;11.464;2023-02-25T12:23:00;3.80;99.90
612;DHT22;293;53.888;11.464;2023-02-25T12:25:35;3.90;99.90
612;DHT22;293;53.888;11.464;2023-02-25T12:37:13;3.70;99.90
612;DHT22;293;53.888;11.464;2023-02-25T12:39:57;3.80;99.90
612;DHT22;293;53.888;11.464;2023-02-25T12:42:43;4.00;99.90
612;DHT22;293;53.888;11.464;2023-02-25T12:48:47;3.90;99.30
612;DHT22;293;53.888;11.464;2023-02-25T12:51:37;3.90;99.10
612;DHT22;293;53.888;11.464;2023-02-25T12:54:20;4.00;99.10
612;DHT22;293;53.888;11.464;2023-02-25T12:57:01;4.10;98.90
612;DHT22;293;53.888;11.464;2023-02-25T12:59:46;3.90;98.40
612;DHT22;293;53.888;11.464;2023-02-25T13:02:32;3.90;99.00
612;DHT22;293;53.888;11.464;2023-02-25T13:05:23;4.10;99.20
612;DHT22;293;53.888;11.464;2023-02-25T13:08:07;4.00;98.10
612;DHT22;293;53.888;11.464;2023-02-25T13:10:44;4.00;97.80
612;DHT22;293;53.888;11.464;2023-02-25T13:13:40;4.00;97.40
612;DHT22;293;53.888;11.464;2023-02-25T13:16:19;4.10;97.50
612;DHT22;293;53.888;11.464;2023-02-25T13:18:59;4.10;98.00
612;DHT22;293;53.888;11.464;2023-02-25T13:21:46;3.90;97.50
612;DHT22;293;53.888;11.464;2023-02-25T13:24:30;3.90;96.80
612;DHT22;293;53.888;11.464;2023-02-25T13:30:02;3.60;97.60
612;DHT22;293;53.888;11.464;2023-02-25T13:32:37;3.60;98.00
612;DHT22;293;53.888;11.464;2023-02-25T13:35:22;3.60;98.00
612;DHT22;293;53.888;11.464;2023-02-25T13:38:03;3.80;96.80
612;DHT22;293;53.888;11.464;2023-02-25T13:40:46;3.80;97.40
612;DHT22;293;53.888;11.464;2023-02-25T13:43:36;3.80;98.10
612;DHT22;293;53.888;11.464;2023-02-25T13:49:39;4.00;97.70
612;DHT22;293;53.888;11.464;2023-02-25T13:52:25;4.00;97.30
612;DHT22;293;53.888;11.464;2023-02-25T13:55:15;3.80;97.80
612;DHT22;293;53.888;11.464;2023-02-25T13:57:57;3.90;97.80
612;DHT22;293;53.888;11.464;2023-02-25T14:00:42;4.00;97.90
612;DHT22;293;53.888;11.464;2023-02-25T14:03:51;4.10;97.50
612;DHT22;293;53.888;11.464;2023-02-25T14:06:34;4.00;96.20
612;DHT22;293;53.888;11.464;2023-02-25T14:09:32;3.90;96.70
612;DHT22;293;53.888;11.464;2023-02-25T14:12:12;3.80;96.70
612;DHT22;293;53.888;11.464;2023-02-25T14:14:51;3.80;96.50
612;DHT22;293;53.888;11.464;2023-02-25T14:17:39;3.70;96.20
612;DHT22;293;53.888;11.464;2023-02-25T14:20:17;3.60;96.00
612;DHT22;293;53.888;11.464;2023-02-25T14:22:49;3.70;96.60
612;DHT22;293;53.888;11.464;2023-02-25T14:25:38;3.70;96.80
612;DHT22;293;53.888;11.464;2023-02-25T14:28:15;3.80;96.80
612;DHT22;293;53.888;11.464;2023-02-25T14:30:55;3.70;96.50
612;DHT22;293;53.888;11.464;2023-02-25T14:33:50;3.80;96.70
612;DHT22;293;53.888;11.464;2023-02-25T14:36:31;3.80;97.30
612;DHT22;293;53.888;11.464;2023-02-25T14:39:13;3.70;96.80
612;DHT22;293;53.888;11.464;2023-02-25T14:41:56;3.70;96.10
612;DHT22;293;53.888;11.464;2023-02-25T14:44:30;3.70;96.40
612;DHT22;293;53.888;11.464;2023-02-25T14:47:01;3.70;96.00
612;DHT22;293;53.888;11.464;2023-02-25T14:49:34;3.60;95.70
612;DHT22;293;53.888;11.464;2023-02-25T14:55:30;3.50;96.20
612;DHT22;293;53.888;11.464;2023-02-25T15:01:30;3.40;96.60
612;DHT22;293;53.888;11.464;2023-02-25T15:04:22;3.40;96.50
612;DHT22;293;53.888;11.464;2023-02-25T15:07:25;3.40;96.80
612;DHT22;293;53.888;11.464;2023-02-25T15:10:26;3.40;97.20
612;DHT22;293;53.888;11.464;2023-02-25T15:13:32;3.40;97.80
612;DHT22;293;53.888;11.464;2023-02-25T15:16:29;3.50;97.20
612;DHT22;293;53.888;11.464;2023-02-25T15:22:19;3.30;97.40
612;DHT22;293;53.888;11.464;2023-02-25T15:24:46;3.40;97.50
612;DHT22;293;53.888;11.464;2023-02-25T15:30:16;3.30;97.10
612;DHT22;293;53.888;11.464;2023-02-25T15:33:05;3.20;97.00
612;DHT22;293;53.888;11.464;2023-02-25T15:35:57;3.10;97.20
612;DHT22;293;53.888;11.464;2023-02-25T15:38:42;3.10;96.50
612;DHT22;293;53.888;11.464;2023-02-25T15:41:35;3.20;97.00
612;DHT22;293;53.888;11.464;2023-02-25T15:49:55;3.10;97.00
612;DHT22;293;53.888;11.464;2023-02-25T15:52:51;3.10;97.20
612;DHT22;293;53.888;11.464;2023-02-25T15:55:35;3.10;97.60
612;DHT22;293;53.888;11.464;2023-02-25T16:01:22;3.20;98.20
612;DHT22;293;53.888;11.464;2023-02-25T16:03:49;3.10;98.60
612;DHT22;293;53.888;11.464;2023-02-25T16:06:21;3.10;98.00
612;DHT22;293;53.888;11.464;2023-02-25T16:08:52;3.00;98.20
612;DHT22;293;53.888;11.464;2023-02-25T16:11:25;3.00;98.80
612;DHT22;293;53.888;11.464;2023-02-25T16:13:54;3.00;98.50
612;DHT22;293;53.888;11.464;2023-02-25T16:16:21;3.10;98.60
612;DHT22;293;53.888;11.464;2023-02-25T16:18:49;3.10;99.00
612;DHT22;293;53.888;11.464;2023-02-25T16:21:22;3.20;98.00
612;DHT22;293;53.888;11.464;2023-02-25T16:23:51;3.10;97.70
612;DHT22;293;53.888;11.464;2023-02-25T16:26:29;3.20;97.50
612;DHT22;293;53.888;11.464;2023-02-25T16:29:06;3.30;96.70
612;DHT22;293;53.888;11.464;2023-02-25T16:31:39;3.20;96.70
612;DHT22;293;53.888;11.464;2023-02-25T16:34:13;3.20;97.20
612;DHT22;293;53.888;11.464;2023-02-25T16:36:49;3.20;97.70
612;DHT22;293;53.888;11.464;2023-02-25T16:39:19;3.30;97.60
612;DHT22;293;53.888;11.464;2023-02-25T16:41:48;3.30;97.80
612;DHT22;293;53.888;11.464;2023-02-25T16:44:18;3.30;97.70
612;DHT22;293;53.888;11.464;2023-02-25T16:46:50;3.20;97.70
612;DHT22;293;53.888;11.464;2023-02-25T16:49:22;3.20;98.40
612;DHT22;293;53.888;11.464;2023-02-25T16:51:52;3.20;98.30
612;DHT22;293;53.888;11.464;2023-02-25T16:54:23;3.10;98.00
612;DHT22;293;53.888;11.464;2023-02-25T16:56:54;3.20;98.00
612;DHT22;293;53.888;11.464;2023-02-25T16:59:23;3.10;98.00
612;DHT22;293;53.888;11.464;2023-02-25T17:01:54;3.10;97.80
612;DHT22;293;53.888;11.464;2023-02-25T17:04:26;3.10;98.10
612;DHT22;293;53.888;11.464;2023-02-25T17:07:11;3.10;98.30
612;DHT22;293;53.888;11.464;2023-02-25T17:09:43;3.10;98.80
612;DHT22;293;53.888;11.464;2023-02-25T17:12:15;3.10;98.60
612;DHT22;293;53.888;11.464;2023-02-25T17:14:45;3.20;98.40
612;DHT22;293;53.888;11.464;2023-02-25T17:17:20;3.10;98.20
612;DHT22;293;53.888;11.464;2023-02-25T17:19:48;3.10;98.40
612;DHT22;293;53.888;11.464;2023-02-25T17:22:20;3.10;98.90
612;DHT22;293;53.888;11.464;2023-02-25T17:24:48;3.10;98.70
612;DHT22;293;53.888;11.464;2023-02-25T17:27:16;3.20;98.50
612;DHT22;293;53.888;11.464;2023-02-25T17:29:43;3.20;98.00
612;DHT22;293;53.888;11.464;2023-02-25T17:32:16;3.20;97.90
612;DHT22;293;53.888;11.464;2023-02-25T17:34:45;3.20;97.20
612;DHT22;293;53.888;11.464;2023-02-25T17:37:13;3.10;96.80
612;DHT22;293;53.888;11.464;2023-02-25T17:39:42;3.10;96.80
612;DHT22;293;53.888;11.464;2023-02-25T17:42:30;3.20;96.50
612;DHT22;293;53.888;11.464;2023-02-25T17:44:58;3.10;96.90
612;DHT22;293;53.888;11.464;2023-02-25T17:47:28;3.10;97.20
612;DHT22;293;53.888;11.464;2023-02-25T17:49:57;3.10;97.50
612;DHT22;293;53.888;11.464;2023-02-25T17:52:26;3.20;97.50
612;DHT22;293;53.888;11.464;2023-02-25T17:54:58;3.20;98.00
612;DHT22;293;53.888;11.464;2023-02-25T17:57:27;3.20;98.40
612;DHT22;293;53.888;11.464;2023-02-25T17:59:56;3.20;98.40
612;DHT22;293;53.888;11.464;2023-02-25T18:02:30;3.20;98.60